Time;durP1;ratioP1;P1;durP2;ratioP2;P2;SDS_P1;SDS_P2;PMS_P1;PMS_P2;Temp;Humidity;BMP_temperature;BMP_pressure;BME280_temperature;BME280_humidity;BME280_pressure;Samples;Min_cycle;Max_cycle;Signal;HPM_P1;HPM_P2
2023/07/13 00:04:54;;;;;;;6.63;1.27;;;;;;;23.80;36.28;101389.78;16109138;19;130600;-52
2023/07/13 00:10:17;;;;;;;4.05;1.10;;;;;;;23.80;36.46;101395.34;16107393;19;129688;-52
2023/07/13 00:15:39;;;;;;;5.68;0.90;;;;;;;23.79;36.06;101397.31;16114451;19;130171;-53
2023/07/13 00:21:05;;;;;;;4.75;1.13;;;;;;;23.78;36.42;101400.38;16108168;19;129980;-57
2023/07/13 00:26:27;;;;;;;4.22;0.88;;;;;;;23.77;36.46;101395.91;16111005;19;131817;-52
2023/07/13 00:31:49;;;;;;;5.63;1.40;;;;;;;23.78;36.38;101397.56;16111327;19;131585;-47
2023/07/13 00:37:11;;;;;;;7.63;1.33;;;;;;;23.77;36.71;101407.94;16110405;19;129591;-53
2023/07/13 00:42:34;;;;;;;4.95;1.10;;;;;;;23.76;36.98;101405.38;16105541;19;131546;-50
2023/07/13 00:47:57;;;;;;;4.40;1.00;;;;;;;23.76;36.72;101409.03;16113368;19;130353;-50
2023/07/13 00:53:20;;;;;;;2.90;0.80;;;;;;;23.74;36.97;101402.88;16113988;19;129434;-53
2023/07/13 00:58:42;;;;;;;2.83;0.90;;;;;;;23.74;36.64;101404.84;16113227;19;129872;-51
2023/07/13 01:04:07;;;;;;;4.28;0.95;;;;;;;23.74;36.82;101407.63;16113750;19;130124;-51
2023/07/13 01:09:30;;;;;;;4.40;1.27;;;;;;;23.73;36.62;101419.91;16104518;19;131752;-51
2023/07/13 01:15:00;;;;;;;3.10;1.05;;;;;;;23.72;37.16;101415.44;16114090;19;131306;-48
2023/07/13 01:20:22;;;;;;;3.55;0.90;;;;;;;23.71;37.01;101419.34;16110393;19;131107;-50
2023/07/13 01:25:45;;;;;;;3.78;0.95;;;;;;;23.70;36.97;101428.81;16106879;19;132057;-50
2023/07/13 01:31:09;;;;;;;4.25;0.95;;;;;;;23.69;36.94;101432.72;16110645;19;130178;-47
2023/07/13 01:36:31;;;;;;;4.10;0.90;;;;;;;23.68;37.14;101433.84;16103361;19;131875;-54
2023/07/13 01:41:53;;;;;;;1.85;0.65;;;;;;;23.68;36.85;101436.63;16112390;19;130628;-47
2023/07/13 01:47:15;;;;;;;3.90;0.93;;;;;;;23.66;36.79;101422.94;16108117;19;130517;-50
2023/07/13 01:52:37;;;;;;;3.90;0.80;;;;;;;23.66;37.15;101429.34;16109550;19;130251;-51
2023/07/13 01:57:59;;;;;;;4.53;1.00;;;;;;;23.65;37.30;101433.25;16108804;19;132168;-47
2023/07/13 02:03:21;;;;;;;3.65;0.68;;;;;;;23.64;37.29;101431.56;16105163;19;129442;-50
2023/07/13 02:08:43;;;;;;;2.50;0.70;;;;;;;23.64;37.33;101436.34;16107374;19;129980;-50
2023/07/13 02:14:05;;;;;;;2.40;0.90;;;;;;;23.63;37.45;101429.06;16105472;19;130052;-49
2023/07/13 02:19:27;;;;;;;2.78;0.90;;;;;;;23.63;37.34;101435.47;16107935;19;129780;-54
2023/07/13 02:24:49;;;;;;;2.40;0.80;;;;;;;23.65;36.95;101429.63;16105389;19;129824;-49
2023/07/13 02:30:12;;;;;;;2.45;0.90;;;;;;;23.63;37.42;101429.88;16102028;19;129854;-52
2023/07/13 02:35:34;;;;;;;2.10;0.90;;;;;;;23.63;37.22;101424.31;16101963;19;130171;-55
2023/07/13 02:40:56;;;;;;;4.63;0.90;;;;;;;23.62;37.26;101433.81;16108856;19;129714;-50
2023/07/13 02:46:19;;;;;;;2.30;0.90;;;;;;;23.63;37.44;101423.47;16097640;19;131186;-51
2023/07/13 02:51:41;;;;;;;4.85;1.08;;;;;;;23.61;37.29;101420.97;16109358;19;129974;-51
2023/07/13 02:57:03;;;;;;;3.70;0.82;;;;;;;23.61;37.19;101423.75;16114144;19;131234;-54
2023/07/13 03:02:27;;;;;;;2.03;0.70;;;;;;;23.60;37.76;101424.84;16116435;19;129895;-47
2023/07/13 03:07:50;;;;;;;2.15;0.70;;;;;;;23.58;37.55;101428.97;16118944;19;129866;-46
2023/07/13 03:13:12;;;;;;;3.60;0.57;;;;;;;23.58;37.52;101432.66;16116589;19;131124;-45
2023/07/13 03:18:35;;;;;;;2.55;0.90;;;;;;;23.57;37.71;101441.28;16120377;19;130276;-47
2023/07/13 03:23:57;;;;;;;3.28;0.90;;;;;;;23.56;37.86;101434.00;16119054;19;129220;-49
2023/07/13 03:29:19;;;;;;;8.80;0.82;;;;;;;23.55;37.78;101438.75;16116969;19;130435;-51
2023/07/13 03:34:41;;;;;;;2.00;0.70;;;;;;;23.54;37.95;101451.03;16124336;19;129319;-54
2023/07/13 03:40:03;;;;;;;4.22;0.98;;;;;;;23.53;37.74;101446.53;16122383;19;129837;-55
2023/07/13 03:45:25;;;;;;;2.60;0.82;;;;;;;23.53;37.70;101456.88;16124139;19;130671;-50
2023/07/13 03:50:49;;;;;;;3.03;1.00;;;;;;;23.53;37.88;101460.50;16124002;19;130706;-55
2023/07/13 03:56:14;;;;;;;1.65;0.88;;;;;;;23.52;37.86;101464.41;16123041;19;129739;-51
2023/07/13 04:01:36;;;;;;;3.17;1.10;;;;;;;23.50;37.88;101477.81;16115384;19;130232;-50
2023/07/13 04:06:58;;;;;;;4.97;1.20;;;;;;;23.49;38.25;101474.16;16117077;19;131174;-52
2023/07/13 04:12:20;;;;;;;3.17;0.98;;;;;;;23.49;38.09;101478.91;16117833;19;129575;-54
2023/07/13 04:17:42;;;;;;;3.60;0.93;;;;;;;23.48;38.02;101480.84;16118893;19;130225;-54
2023/07/13 04:23:04;;;;;;;2.35;0.80;;;;;;;23.48;37.90;101489.22;16118038;19;129503;-51
2023/07/13 04:28:27;;;;;;;4.93;1.38;;;;;;;23.48;38.05;101491.19;16120843;19;130132;-49
2023/07/13 04:33:50;;;;;;;2.70;1.00;;;;;;;23.47;37.97;101489.50;16114181;19;130143;-50
2023/07/13 04:39:12;;;;;;;4.38;1.23;;;;;;;23.47;38.34;101492.31;16108345;19;130420;-54
2023/07/13 04:44:34;;;;;;;5.43;1.17;;;;;;;23.45;38.14;101500.94;16111476;19;134249;-49
2023/07/13 04:49:57;;;;;;;4.43;1.23;;;;;;;23.45;38.48;101500.09;16111566;19;129307;-54
2023/07/13 04:55:19;;;;;;;4.47;1.02;;;;;;;23.45;38.21;101500.09;16114266;19;129330;-47
2023/07/13 05:00:42;;;;;;;4.43;0.90;;;;;;;23.44;38.19;101518.81;16112606;19;130687;-48
2023/07/13 05:06:06;;;;;;;4.65;1.38;;;;;;;23.44;38.06;101520.75;16108378;19;130573;-52
2023/07/13 05:11:28;;;;;;;3.88;1.40;;;;;;;23.43;38.29;101527.44;16109419;19;130780;-50
2023/07/13 05:16:49;;;;;;;4.20;1.52;;;;;;;23.41;38.55;101530.50;16110588;19;130972;-53
2023/07/13 05:22:12;;;;;;;4.25;1.00;;;;;;;23.41;38.38;101538.88;16112584;19;131246;-52
2023/07/13 05:27:35;;;;;;;4.15;1.38;;;;;;;23.42;38.27;101539.72;16110561;19;132134;-49
2023/07/13 05:32:57;;;;;;;2.28;0.80;;;;;;;23.40;38.29;101536.34;16112450;19;129974;-51
2023/07/13 05:38:19;;;;;;;3.90;1.20;;;;;;;23.39;38.22;101540.22;16108543;19;129626;-46
2023/07/13 05:43:41;;;;;;;7.07;1.30;;;;;;;23.37;38.51;101536.88;16112243;19;130913;-49
2023/07/13 05:49:03;;;;;;;7.80;2.03;;;;;;;23.37;38.61;101545.28;16110023;19;130344;-53
2023/07/13 05:54:25;;;;;;;4.60;1.60;;;;;;;23.35;38.44;101539.94;16113398;19;131024;-51
2023/07/13 05:59:47;;;;;;;6.95;1.60;;;;;;;23.35;38.35;101553.88;16114331;19;130191;-50
2023/07/13 06:05:09;;;;;;;7.10;1.77;;;;;;;23.35;38.63;101559.47;16107505;19;130016;-50
2023/07/13 06:10:37;;;;;;;4.88;1.60;;;;;;;23.35;39.11;101563.13;16107698;19;130362;-49
2023/07/13 06:16:00;;;;;;;5.63;1.52;;;;;;;23.35;38.51;101568.72;16109918;19;130058;-48
2023/07/13 06:21:23;;;;;;;4.78;1.40;;;;;;;23.34;38.80;101571.75;16108429;19;130960;-53
2023/07/13 06:26:45;;;;;;;8.43;1.73;;;;;;;23.33;38.65;101579.28;16109284;19;130463;-49
2023/07/13 06:32:07;;;;;;;5.55;1.42;;;;;;;23.34;38.75;101580.13;16109706;19;130590;-52
2023/07/13 06:37:29;;;;;;;7.03;1.70;;;;;;;23.32;38.78;101590.72;16111964;19;134238;-48
2023/07/13 06:42:51;;;;;;;5.28;1.23;;;;;;;23.32;38.79;101590.72;16107752;19;129600;-51
2023/07/13 06:48:14;;;;;;;5.03;1.58;;;;;;;23.32;38.78;101594.34;16108275;19;131760;-51
2023/07/13 06:53:36;;;;;;;8.80;1.52;;;;;;;23.32;38.73;101608.31;16107935;19;130110;-48
2023/07/13 06:58:58;;;;;;;8.85;1.50;;;;;;;23.33;38.80;101600.75;16107245;19;131198;-50
2023/07/13 07:04:20;;;;;;;6.28;1.40;;;;;;;23.34;39.17;101597.72;16105897;19;130842;-53
2023/07/13 07:09:42;;;;;;;7.50;1.55;;;;;;;23.38;38.81;101595.25;16102781;19;129411;-53
2023/07/13 07:15:04;;;;;;;10.95;2.30;;;;;;;23.41;38.79;101599.47;16102612;19;129930;-52
2023/07/13 07:20:27;;;;;;;7.97;2.03;;;;;;;23.45;38.99;101607.03;16108297;19;130841;-51
2023/07/13 07:25:49;;;;;;;8.68;2.30;;;;;;;23.47;38.84;101604.00;16102004;19;134069;-51
2023/07/13 07:31:11;;;;;;;8.57;2.20;;;;;;;23.51;38.91;101617.19;16106974;19;129726;-52
2023/07/13 07:36:36;;;;;;;8.52;2.13;;;;;;;23.63;38.70;101607.81;16109576;19;129637;-48
2023/07/13 07:42:01;;;;;;;9.05;2.33;;;;;;;23.73;38.61;101607.09;16117224;19;130703;-50
2023/07/13 07:47:23;;;;;;;10.00;1.88;;;;;;;23.82;38.67;101606.31;16115686;19;129786;-52
2023/07/13 07:52:45;;;;;;;8.35;2.08;;;;;;;23.94;38.71;101610.88;16120548;19;130481;-50
2023/07/13 07:58:07;;;;;;;7.88;2.40;;;;;;;24.04;38.71;101611.00;16122160;19;130710;-53
2023/07/13 08:03:49;;;;;;;8.38;1.65;;;;;;;24.06;38.41;101611.53;16118028;19;133587;-50
2023/07/13 08:09:14;;;;;;;10.35;2.38;;;;;;;24.14;38.55;101601.00;16119611;19;134735;-51
2023/07/13 08:14:38;;;;;;;8.82;2.05;;;;;;;24.19;38.85;101604.66;16117748;19;129465;-49
2023/07/13 08:20:12;;;;;;;8.15;2.40;;;;;;;24.25;38.75;101606.41;16116873;19;130148;-51
2023/07/13 08:25:34;;;;;;;11.82;2.40;;;;;;;24.35;38.44;101602.03;16113820;19;130165;-51
2023/07/13 08:31:05;;;;;;;6.13;1.83;;;;;;;24.36;38.34;101606.50;16109995;19;131254;-50
2023/07/13 08:36:27;;;;;;;9.02;2.03;;;;;;;24.34;38.50;101612.34;16111834;19;131272;-50
2023/07/13 08:41:56;;;;;;;8.20;1.92;;;;;;;24.34;38.42;101611.53;16114888;19;133890;-53
2023/07/13 08:47:23;;;;;;;8.40;2.40;;;;;;;24.30;38.42;101607.56;16116337;19;130770;-48
2023/07/13 08:52:46;;;;;;;8.10;2.00;;;;;;;24.29;38.67;101603.09;16112457;19;130436;-54
2023/07/13 08:58:14;;;;;;;8.00;2.13;;;;;;;24.23;38.62;101614.22;16115093;19;130773;-49
2023/07/13 09:03:50;;;;;;;7.75;2.10;;;;;;;24.17;38.77;101612.47;16113702;19;130791;-51
2023/07/13 09:09:42;;;;;;;9.13;1.88;;;;;;;24.25;38.54;101611.16;16114688;19;129347;-51
2023/07/13 09:15:17;;;;;;;7.03;1.90;;;;;;;24.27;38.57;101607.00;16111821;19;130470;-51
2023/07/13 09:20:57;;;;;;;7.43;2.35;;;;;;;24.31;38.49;101601.69;16114467;19;131497;-53
2023/07/13 09:26:21;;;;;;;10.13;2.08;;;;;;;24.32;38.85;101599.75;16112935;19;130035;-50
2023/07/13 09:31:49;;;;;;;7.70;2.20;;;;;;;24.36;38.66;101603.72;16115772;19;130672;-52
2023/07/13 09:37:11;;;;;;;8.48;1.80;;;;;;;24.36;38.60;101603.72;16111963;19;129568;-52
2023/07/13 09:42:33;;;;;;;9.45;1.80;;;;;;;24.31;38.65;101606.47;16114516;19;129977;-51
2023/07/13 09:48:03;;;;;;;5.78;1.77;;;;;;;24.27;38.81;101612.59;16111420;19;130525;-50
2023/07/13 09:53:30;;;;;;;11.38;1.70;;;;;;;24.20;38.65;101611.09;16110199;19;129729;-52
2023/07/13 09:58:53;;;;;;;5.65;1.75;;;;;;;24.15;38.64;101625.88;16114571;19;129644;-53
2023/07/13 10:04:20;;;;;;;9.00;2.00;;;;;;;24.23;38.65;101627.34;16110827;19;131608;-50
2023/07/13 10:09:42;;;;;;;10.38;2.53;;;;;;;24.23;38.58;101628.19;16108967;19;131373;-53
2023/07/13 10:15:13;;;;;;;7.10;1.90;;;;;;;24.22;38.75;101625.66;16110403;19;130870;-48
2023/07/13 10:20:44;;;;;;;8.60;2.00;;;;;;;24.18;38.61;101622.56;16112270;19;131183;-54
2023/07/13 10:26:13;;;;;;;7.90;2.20;;;;;;;24.17;39.04;101618.06;16111132;19;130573;-55
2023/07/13 10:31:38;;;;;;;7.38;1.30;;;;;;;24.13;38.87;101622.50;16107981;19;129975;-52
2023/07/13 10:37:01;;;;;;;5.28;1.67;;;;;;;24.12;38.93;101629.22;16106858;19;129662;-54
2023/07/13 10:42:39;;;;;;;7.20;1.63;;;;;;;24.18;38.78;101619.75;16101827;19;129587;-52
2023/07/13 10:48:02;;;;;;;5.32;1.52;;;;;;;24.16;38.97;101632.31;16108134;19;129965;-53
2023/07/13 10:53:36;;;;;;;6.07;1.85;;;;;;;24.15;38.72;101634.25;16108393;19;131356;-47
2023/07/13 10:59:07;;;;;;;5.97;1.77;;;;;;;24.18;38.50;101619.75;16105995;19;129703;-50
2023/07/13 11:04:39;;;;;;;7.68;1.63;;;;;;;24.17;38.62;101646.03;16106599;19;129650;-52
2023/07/13 11:10:05;;;;;;;9.95;1.70;;;;;;;24.15;38.49;101651.03;16102219;19;129577;-51
2023/07/13 11:15:42;;;;;;;6.22;1.70;;;;;;;24.12;38.32;101637.63;16119749;19;130126;-49
2023/07/13 11:21:16;;;;;;;8.70;1.60;;;;;;;24.10;38.59;101635.06;16119579;19;130164;-53
2023/07/13 11:26:52;;;;;;;10.15;1.75;;;;;;;24.07;38.58;101631.97;16120450;19;129539;-49
2023/07/13 11:32:29;;;;;;;6.07;1.50;;;;;;;24.08;38.55;101634.47;16122635;19;134448;-56
2023/07/13 11:37:52;;;;;;;6.50;1.25;;;;;;;24.08;38.76;101625.28;16118716;19;129761;-55
2023/07/13 11:43:16;;;;;;;7.03;1.50;;;;;;;24.07;38.76;101634.75;16119697;19;131011;-54
2023/07/13 11:48:38;;;;;;;6.22;1.67;;;;;;;24.04;38.52;101633.34;16119387;19;129687;-55
2023/07/13 11:54:20;;;;;;;9.68;1.70;;;;;;;24.05;38.70;101642.56;16119867;19;130766;-54
2023/07/13 11:59:42;;;;;;;4.22;1.52;;;;;;;24.00;38.72;101642.53;16119994;19;129684;-54
2023/07/13 12:05:06;;;;;;;7.47;1.92;;;;;;;23.97;38.83;101646.69;16117118;19;131582;-55
2023/07/13 12:10:32;;;;;;;5.28;1.15;;;;;;;23.94;38.83;101642.47;16104844;19;130823;-55
2023/07/13 12:15:56;;;;;;;6.13;1.52;;;;;;;23.95;38.61;101654.50;16111956;19;136299;-50
2023/07/13 12:21:21;;;;;;;9.13;1.38;;;;;;;23.93;38.94;101691.09;16114720;19;129291;-45
2023/07/13 12:26:44;;;;;;;6.20;1.50;;;;;;;23.91;38.50;101709.25;16108164;19;131719;-51
2023/07/13 12:32:09;;;;;;;5.85;1.30;;;;;;;23.89;38.58;101712.28;16113540;19;129464;-53
2023/07/13 12:37:34;;;;;;;4.95;1.48;;;;;;;23.85;38.73;101727.91;16118667;19;129527;-49
2023/07/13 12:42:56;;;;;;;5.90;1.83;;;;;;;23.83;38.73;101746.88;16117824;19;130623;-52
2023/07/13 12:48:19;;;;;;;8.07;1.42;;;;;;;23.82;38.94;101761.97;16114918;19;130442;-49
2023/07/13 12:54:12;;;;;;;3.60;1.50;;;;;;;23.81;38.53;101768.66;16116911;19;131007;-45
2023/07/13 12:59:36;;;;;;;4.15;1.10;;;;;;;23.78;38.70;101761.66;16119551;19;130353;-52
2023/07/13 13:04:58;;;;;;;3.72;1.58;;;;;;;23.76;38.86;101752.66;16119699;19;130292;-46
2023/07/13 13:10:21;;;;;;;4.72;1.10;;;;;;;23.77;38.75;101756.28;16114635;19;129151;-51
2023/07/13 13:15:43;;;;;;;3.72;1.23;;;;;;;23.77;38.89;101748.78;16112435;19;129427;-55
2023/07/13 13:21:05;;;;;;;2.75;1.10;;;;;;;23.81;38.81;101737.91;16116996;19;129947;-49
2023/07/13 13:26:28;;;;;;;4.10;1.40;;;;;;;23.80;39.10;101737.09;16116105;19;130047;-49
2023/07/13 13:31:50;;;;;;;4.78;1.27;;;;;;;23.83;39.04;101724.53;16115606;19;130245;-52
2023/07/13 13:37:19;;;;;;;5.05;1.30;;;;;;;23.88;38.92;101729.31;16117105;19;129819;-51
2023/07/13 13:42:41;;;;;;;3.15;1.20;;;;;;;23.91;38.91;101724.03;16115600;19;129813;-47
2023/07/13 13:48:03;;;;;;;3.42;1.17;;;;;;;23.96;39.29;101723.25;16117842;19;129960;-45
2023/07/13 13:53:26;;;;;;;6.28;1.48;;;;;;;23.97;39.15;101723.00;16117254;19;130364;-50
2023/07/13 13:58:51;;;;;;;3.40;1.42;;;;;;;23.99;39.15;101733.91;16111355;19;130866;-52
2023/07/13 14:04:22;;;;;;;3.42;1.30;;;;;;;24.02;39.33;101726.94;16114405;19;131865;-48
2023/07/13 14:09:44;;;;;;;3.42;1.33;;;;;;;24.02;39.57;101727.81;16112372;19;130211;-50
2023/07/13 14:15:21;;;;;;;2.25;1.17;;;;;;;24.05;39.97;101727.28;16114767;19;133475;-52
2023/07/13 14:20:45;;;;;;;3.03;1.27;;;;;;;24.07;39.63;101718.63;16114163;19;129596;-54
2023/07/13 14:26:16;;;;;;;7.22;1.60;;;;;;;24.14;39.73;101713.66;16112585;19;129592;-54
2023/07/13 14:31:38;;;;;;;2.60;1.10;;;;;;;24.16;39.39;101707.81;16109816;19;130721;-53
2023/07/13 14:37:00;;;;;;;3.50;1.33;;;;;;;24.17;39.71;101701.09;16114281;19;129631;-52
2023/07/13 14:42:22;;;;;;;3.53;1.45;;;;;;;24.17;39.90;101699.13;16111060;19;129425;-50
2023/07/13 14:47:45;;;;;;;3.45;1.08;;;;;;;24.18;39.89;101694.41;16112716;19;129455;-53
2023/07/13 14:53:10;;;;;;;3.22;1.10;;;;;;;24.17;39.99;101687.13;16124985;19;129889;-50
2023/07/13 14:58:32;;;;;;;3.75;1.10;;;;;;;24.18;40.11;101686.03;16124635;19;130157;-52
2023/07/13 15:03:54;;;;;;;2.53;1.13;;;;;;;24.18;40.02;101678.47;16123338;19;130488;-51
2023/07/13 15:09:16;;;;;;;3.22;1.33;;;;;;;24.21;39.96;101680.75;16124207;19;129923;-55
2023/07/13 15:14:38;;;;;;;3.50;1.10;;;;;;;24.23;39.95;101683.25;16122299;19;130484;-50
2023/07/13 15:20:00;;;;;;;2.33;1.25;;;;;;;24.25;39.94;101673.50;16124539;19;129626;-53
2023/07/13 15:25:25;;;;;;;3.25;1.10;;;;;;;24.25;39.85;101664.28;16120158;19;129486;-52
2023/07/13 15:30:49;;;;;;;3.20;1.20;;;;;;;24.26;40.02;101663.19;16119806;19;129603;-48
2023/07/13 15:36:12;;;;;;;4.68;1.10;;;;;;;24.26;39.71;101669.59;16113217;19;131217;-53
2023/07/13 15:41:34;;;;;;;2.03;1.20;;;;;;;24.27;40.04;101667.66;16117798;19;132008;-51
2023/07/13 15:46:57;;;;;;;4.60;1.15;;;;;;;24.26;40.02;101664.00;16119092;19;129519;-53
2023/07/13 15:52:23;;;;;;;2.70;1.20;;;;;;;24.25;40.10;101664.28;16116376;19;130173;-55
2023/07/13 15:57:49;;;;;;;5.43;1.58;;;;;;;24.23;39.76;101661.75;16120188;19;129451;-56
2023/07/13 16:03:11;;;;;;;5.32;1.70;;;;;;;24.22;39.78;101659.19;16119068;19;131748;-52
2023/07/13 16:08:33;;;;;;;3.70;1.60;;;;;;;24.22;39.87;101660.06;16111566;19;131340;-51
2023/07/13 16:13:55;;;;;;;4.38;1.50;;;;;;;24.20;39.64;101656.69;16117309;19;129707;-55
2023/07/13 16:19:17;;;;;;;5.20;1.85;;;;;;;24.18;39.93;101670.06;16117191;19;129508;-52
2023/07/13 16:24:39;;;;;;;3.42;1.67;;;;;;;24.15;39.90;101664.19;16121687;19;131994;-53
2023/07/13 16:30:11;;;;;;;2.65;1.42;;;;;;;24.15;40.04;101665.00;16116411;19;130855;-55
2023/07/13 16:35:37;;;;;;;3.35;1.67;;;;;;;24.13;39.96;101656.03;16117930;19;129602;-54
2023/07/13 16:40:58;;;;;;;;;;;;;;;24.10;40.12;101659.41;16113878;19;130139;-49
2023/07/13 16:46:23;;;;;;;4.53;1.50;;;;;;;24.14;40.00;101651.31;16112509;19;132127;-48
2023/07/13 16:51:45;;;;;;;5.20;1.30;;;;;;;24.10;40.07;101663.03;16114385;19;130123;-52
2023/07/13 16:57:16;;;;;;;2.40;1.50;;;;;;;24.11;39.88;101661.09;16115225;19;130317;-52
2023/07/13 17:02:38;;;;;;;3.90;1.38;;;;;;;24.08;40.16;101661.59;16112319;19;130181;-47
2023/07/13 17:08:03;;;;;;;9.23;1.70;;;;;;;24.07;40.04;101649.56;16113455;19;130705;-52
2023/07/13 17:13:27;;;;;;;2.77;1.33;;;;;;;24.05;40.00;101657.41;16110777;19;130799;-53
2023/07/13 17:18:50;;;;;;;5.10;1.63;;;;;;;24.03;40.07;101661.56;16114324;19;133812;-51
2023/07/13 17:24:19;;;;;;;4.20;1.35;;;;;;;24.03;40.39;101661.56;16112361;19;131453;-49
2023/07/13 17:29:42;;;;;;;3.20;1.20;;;;;;;24.04;39.89;101658.50;16102349;19;130459;-50
2023/07/13 17:35:15;;;;;;;2.90;1.20;;;;;;;24.07;40.10;101657.13;16091799;19;129772;-49
2023/07/13 17:40:38;;;;;;;4.03;1.30;;;;;;;24.08;40.07;101662.44;16024741;19;129527;-47
2023/07/13 17:46:00;;;;;;;2.88;1.42;;;;;;;24.10;40.08;101659.41;16104907;19;129667;-50
2023/07/13 17:51:27;;;;;;;2.83;1.30;;;;;;;24.07;40.23;101654.31;16096406;19;131001;-55
2023/07/13 17:56:49;;;;;;;5.28;1.63;;;;;;;24.10;40.14;101663.03;16110362;19;131841;-52
2023/07/13 18:02:18;;;;;;;5.15;1.80;;;;;;;24.12;39.82;101659.97;16106516;19;133302;-56
2023/07/13 18:07:41;;;;;;;5.90;1.67;;;;;;;24.12;40.22;101659.97;16106729;19;130848;-52
2023/07/13 18:13:03;;;;;;;5.97;1.73;;;;;;;24.12;39.91;101659.97;16106610;19;129737;-50
2023/07/13 18:18:35;;;;;;;9.48;1.73;;;;;;;24.11;39.92;101663.88;16109299;19;129653;-52
2023/07/13 18:23:57;;;;;;;5.55;1.88;;;;;;;24.09;40.00;101663.28;16104111;19;130284;-49
2023/07/13 18:29:19;;;;;;;7.63;1.80;;;;;;;24.06;39.88;101663.81;16107020;19;130759;-51
2023/07/13 18:34:42;;;;;;;8.45;1.88;;;;;;;24.05;40.10;101664.94;16110601;19;129456;-51
2023/07/13 18:40:12;;;;;;;6.50;2.10;;;;;;;24.01;39.81;101673.00;16109319;19;130154;-50
2023/07/13 18:45:34;;;;;;;7.80;2.00;;;;;;;23.99;39.88;101682.78;16104864;19;129484;-52
2023/07/13 18:50:57;;;;;;;9.40;2.50;;;;;;;23.96;39.93;101673.81;16104770;19;131229;-52
2023/07/13 18:56:20;;;;;;;6.00;1.85;;;;;;;23.95;39.63;101671.25;16103007;19;130800;-52
2023/07/13 19:01:42;;;;;;;6.18;2.20;;;;;;;23.93;39.69;101674.31;16103744;19;129691;-48
2023/07/13 19:07:09;;;;;;;7.63;2.13;;;;;;;23.92;39.80;101674.59;16101856;19;130740;-52
2023/07/13 19:12:31;;;;;;;7.22;2.00;;;;;;;23.89;40.23;101667.56;16109052;19;130803;-51
2023/07/13 19:17:53;;;;;;;4.25;1.75;;;;;;;23.85;39.88;101676.75;16106832;19;130347;-49
2023/07/13 19:23:32;;;;;;;12.27;2.28;;;;;;;23.86;39.93;101670.06;16105730;19;129686;-51
2023/07/13 19:28:56;;;;;;;9.85;2.30;;;;;;;23.82;40.04;101680.94;16105766;19;131079;-54
2023/07/13 19:34:24;;;;;;;4.50;2.00;;;;;;;23.80;40.26;101678.41;16108773;19;131046;-53
2023/07/13 19:39:47;;;;;;;8.52;1.77;;;;;;;23.76;40.51;101687.56;16118494;19;129859;-51
2023/07/13 19:45:17;;;;;;;8.13;1.90;;;;;;;23.76;40.55;101695.94;16116992;19;129797;-51
2023/07/13 19:50:41;;;;;;;7.68;1.90;;;;;;;23.73;40.40;101702.06;16121433;19;129847;-50
2023/07/13 19:56:03;;;;;;;10.52;2.00;;;;;;;23.70;40.62;101709.00;16119097;19;129554;-52
2023/07/13 20:01:27;;;;;;;8.98;2.65;;;;;;;23.67;41.06;101712.34;16118662;19;130357;-52
2023/07/13 20:06:49;;;;;;;10.00;2.63;;;;;;;23.65;41.36;101701.41;16117602;19;129723;-55
2023/07/13 20:12:19;;;;;;;14.47;2.20;;;;;;;23.63;41.31;101714.78;16114868;19;130032;-52
2023/07/13 20:17:47;;;;;;;6.55;2.00;;;;;;;23.62;41.28;101718.72;16115996;19;131202;-51
2023/07/13 20:23:18;;;;;;;7.43;1.95;;;;;;;23.63;41.27;101723.19;16114175;19;131632;-50
2023/07/13 20:28:40;;;;;;;7.60;1.92;;;;;;;23.63;41.20;101728.75;16115615;19;130791;-49
2023/07/13 20:34:03;;;;;;;7.72;1.60;;;;;;;23.63;41.24;101737.13;16115412;19;131276;-51
2023/07/13 20:39:25;;;;;;;5.28;1.77;;;;;;;23.63;41.26;101737.13;16118196;19;131507;-49
2023/07/13 20:44:47;;;;;;;5.90;1.95;;;;;;;23.63;41.18;101737.13;16115578;19;129645;-55
2023/07/13 20:50:24;;;;;;;7.88;1.95;;;;;;;23.64;41.38;101736.03;16114516;19;129440;-52
2023/07/13 20:55:46;;;;;;;6.20;1.80;;;;;;;23.63;41.32;101737.13;16115818;19;129621;-54
2023/07/13 21:01:41;;;;;;;4.63;1.48;;;;;;;23.64;41.19;101727.66;16117189;19;129568;-55
2023/07/13 21:07:16;;;;;;;4.35;1.70;;;;;;;23.65;41.12;101736.91;16113103;19;130911;-55
2023/07/13 21:12:38;;;;;;;5.63;1.77;;;;;;;23.63;41.08;101737.13;16112973;19;129360;-53
2023/07/13 21:18:01;;;;;;;8.23;1.90;;;;;;;23.64;41.24;101740.78;16111110;19;129576;-52
2023/07/13 21:23:32;;;;;;;5.63;1.80;;;;;;;23.64;41.05;101736.03;16109090;19;131424;-53
2023/07/13 21:28:54;;;;;;;3.83;1.40;;;;;;;23.62;41.08;101741.06;16110337;19;130378;-52
2023/07/13 21:34:20;;;;;;;5.30;1.80;;;;;;;23.62;40.82;101737.41;16103283;19;133813;-51
2023/07/13 21:39:47;;;;;;;4.38;1.55;;;;;;;23.59;41.24;101736.00;16104618;19;130078;-52
2023/07/13 21:45:19;;;;;;;3.90;1.45;;;;;;;23.59;41.29;101741.59;16106283;19;130292;-52
2023/07/13 21:50:44;;;;;;;3.60;1.60;;;;;;;23.57;41.20;101743.75;16108864;19;130748;-53
2023/07/13 21:56:10;;;;;;;2.53;1.48;;;;;;;23.57;41.24;101748.50;16105372;19;129510;-50
2023/07/13 22:01:36;;;;;;;3.33;1.48;;;;;;;23.55;41.28;101745.13;16106306;19;129791;-52
2023/07/13 22:06:59;;;;;;;5.30;1.30;;;;;;;23.53;40.95;101742.56;16102947;19;129699;-55
2023/07/13 22:12:21;;;;;;;3.60;1.40;;;;;;;23.50;41.55;101741.16;16105101;19;130150;-53
2023/07/13 22:17:48;;;;;;;5.18;1.63;;;;;;;23.50;41.32;101745.91;16102971;19;130764;-53
2023/07/13 22:23:22;;;;;;;3.78;1.25;;;;;;;23.50;41.42;101740.31;16103863;19;130069;-53
2023/07/13 22:28:44;;;;;;;3.70;1.77;;;;;;;23.48;41.33;101745.31;16103854;19;129984;-51
2023/07/13 22:34:17;;;;;;;2.25;1.20;;;;;;;23.48;41.11;101740.56;16101128;19;130131;-47
2023/07/13 22:39:39;;;;;;;4.38;1.40;;;;;;;23.47;41.35;101743.63;16103578;19;130693;-51
2023/07/13 22:45:02;;;;;;;4.25;1.27;;;;;;;23.46;41.26;101745.56;16104406;19;131273;-49
2023/07/13 22:50:24;;;;;;;4.28;1.63;;;;;;;23.44;41.76;101739.41;16101810;19;130658;-51
2023/07/13 22:55:46;;;;;;;4.35;1.83;;;;;;;23.44;41.36;101732.97;16106620;19;129958;-50
2023/07/13 23:01:22;;;;;;;2.78;1.42;;;;;;;23.45;41.07;101734.66;16104271;19;130302;-54
2023/07/13 23:06:45;;;;;;;3.92;1.48;;;;;;;23.42;41.79;101727.66;16104242;19;131209;-49
2023/07/13 23:12:09;;;;;;;2.78;1.38;;;;;;;23.42;41.56;101721.22;16120056;19;130660;-52
2023/07/13 23:17:31;;;;;;;2.00;1.20;;;;;;;23.41;41.44;101702.75;16122906;19;131222;-50
2023/07/13 23:22:55;;;;;;;2.40;1.17;;;;;;;23.40;41.56;101713.09;16118934;19;130011;-53
2023/07/13 23:28:18;;;;;;;2.20;1.30;;;;;;;23.39;41.55;101716.13;16117630;19;130781;-50
2023/07/13 23:33:41;;;;;;;3.03;1.40;;;;;;;23.39;41.46;101707.75;16119673;19;129933;-53
2023/07/13 23:39:05;;;;;;;5.45;1.30;;;;;;;23.38;41.71;101712.53;16116352;19;130159;-55
2023/07/13 23:44:27;;;;;;;2.38;1.35;;;;;;;23.38;41.42;101708.91;16117096;19;130262;-51
2023/07/13 23:49:49;;;;;;;2.67;1.60;;;;;;;23.38;41.81;101706.09;16113805;19;130203;-53
2023/07/13 23:55:17;;;;;;;2.85;1.65;;;;;;;23.37;41.56;101708.03;16118412;19;130550;-48
